createdAt,value
2023-04-10T00:02:26.301Z,2.03
2023-04-10T00:04:53.616Z,1.83
2023-04-10T00:07:20.611Z,2.13
2023-04-10T00:09:48.120Z,2.55
2023-04-10T00:12:15.776Z,2.47
2023-04-10T00:14:42.700Z,2.08
2023-04-10T00:17:09.880Z,2.42
2023-04-10T00:19:36.805Z,2.63
2023-04-10T00:22:04.444Z,2.38
2023-04-10T00:24:31.464Z,2.42
2023-04-10T00:26:58.507Z,2.17
2023-04-10T00:29:25.594Z,1.95
2023-04-10T00:31:52.615Z,2.70
2023-04-10T00:34:19.616Z,2.58
2023-04-10T00:36:49.277Z,2.47
2023-04-10T00:39:16.701Z,2.10
2023-04-10T00:41:43.655Z,2.38
2023-04-10T00:44:10.674Z,1.95
2023-04-10T00:46:38.173Z,2.30
2023-04-10T00:49:05.225Z,1.83
2023-04-10T00:51:33.294Z,2.05
2023-04-10T00:54:01.205Z,2.55
2023-04-10T00:56:28.359Z,2.33
2023-04-10T00:58:55.534Z,2.92
2023-04-10T01:01:22.526Z,1.65
2023-04-10T01:03:49.654Z,2.10
2023-04-10T01:06:34.363Z,1.92
2023-04-10T01:09:05.598Z,1.90
2023-04-10T01:11:54.364Z,1.30
2023-04-10T01:14:38.302Z,1.42
2023-04-10T01:17:30.508Z,1.63
2023-04-10T01:20:13.646Z,1.30
2023-04-10T01:22:53.279Z,1.45
2023-04-10T01:25:23.205Z,2.03
2023-04-10T01:28:07.349Z,1.58
2023-04-10T01:30:35.433Z,1.88
2023-04-10T01:33:02.468Z,1.55
2023-04-10T01:35:30.132Z,1.77
2023-04-10T01:37:57.139Z,1.27
2023-04-10T01:40:24.184Z,1.67
2023-04-10T01:42:53.045Z,1.75
2023-04-10T01:45:25.675Z,2.05
2023-04-10T01:47:52.738Z,1.92
2023-04-10T01:50:21.037Z,2.03
2023-04-10T01:52:48.632Z,1.35
2023-04-10T01:55:20.108Z,1.90
2023-04-10T01:57:52.029Z,1.55
2023-04-10T02:00:19.475Z,1.23
2023-04-10T02:02:46.651Z,1.77
2023-04-10T02:05:14.183Z,1.50
2023-04-10T02:07:46.658Z,1.73
2023-04-10T02:10:37.163Z,1.48
2023-04-10T02:13:07.880Z,1.15
2023-04-10T02:15:34.986Z,1.58
2023-04-10T02:18:04.828Z,2.05
2023-04-10T02:20:32.455Z,1.38
2023-04-10T02:23:03.384Z,1.77
2023-04-10T02:25:34.073Z,1.60
2023-04-10T02:28:07.726Z,1.58
2023-04-10T02:30:34.994Z,1.35
2023-04-10T02:33:02.016Z,1.33
2023-04-10T02:35:31.070Z,1.27
2023-04-10T02:37:58.238Z,1.20
2023-04-10T02:40:25.525Z,1.50
2023-04-10T02:43:07.285Z,1.63
2023-04-10T02:45:34.588Z,1.35
2023-04-10T02:48:01.959Z,1.30
2023-04-10T02:50:29.797Z,1.55
2023-04-10T02:52:56.913Z,1.23
2023-04-10T02:55:23.825Z,1.55
2023-04-10T02:57:51.388Z,1.92
2023-04-10T03:00:19.397Z,1.73
2023-04-10T03:03:19.547Z,1.15
2023-04-10T03:05:51.545Z,1.33
2023-04-10T03:08:24.471Z,1.45
2023-04-10T03:10:51.549Z,1.38
2023-04-10T03:13:18.676Z,1.13
2023-04-10T03:15:45.716Z,1.35
2023-04-10T03:18:13.180Z,1.25
2023-04-10T03:20:44.968Z,1.83
2023-04-10T03:23:12.233Z,1.10
2023-04-10T03:25:39.294Z,0.88
2023-04-10T03:28:07.842Z,0.82
2023-04-10T03:30:37.079Z,0.77
2023-04-10T03:33:04.378Z,1.02
2023-04-10T03:35:31.614Z,0.70
2023-04-10T03:38:00.294Z,0.85
2023-04-10T03:40:27.285Z,0.75
2023-04-10T03:42:54.216Z,0.68
2023-04-10T03:45:21.254Z,0.90
2023-04-10T03:47:48.472Z,0.43
2023-04-10T03:50:16.488Z,0.65
2023-04-10T03:52:51.985Z,0.50
2023-04-10T03:55:21.510Z,0.40
2023-04-10T03:57:50.178Z,0.30
2023-04-10T04:00:19.799Z,0.20
2023-04-10T04:02:52.442Z,0.40
2023-04-10T04:05:40.169Z,0.20
2023-04-10T04:08:24.377Z,0.50
2023-04-10T04:11:17.599Z,0.20
2023-04-10T04:14:03.831Z,0.20
2023-04-10T04:16:42.898Z,0.32
2023-04-10T04:19:28.490Z,0.10
2023-04-10T04:22:07.738Z,0.10
2023-04-10T04:25:00.857Z,0.20
2023-04-10T04:27:46.370Z,0.15
2023-04-10T04:30:31.421Z,0.63
2023-04-10T04:33:18.737Z,0.20
2023-04-10T04:36:08.677Z,0.25
2023-04-10T04:38:58.691Z,0.38
2023-04-10T04:41:42.703Z,0.10
2023-04-10T04:44:32.743Z,0.20
2023-04-10T04:47:13.093Z,0.10
2023-04-10T04:49:51.272Z,0.30
2023-04-10T04:52:48.188Z,0.20
2023-04-10T04:55:24.762Z,0.20
2023-04-10T04:58:03.354Z,0.20
2023-04-10T05:00:54.599Z,0.22
2023-04-10T05:14:01.916Z,0.20
2023-04-10T05:16:56.558Z,0.10
2023-04-10T05:19:56.065Z,0.20
2023-04-10T05:22:58.570Z,0.10
2023-04-10T05:25:39.870Z,0.20
2023-04-10T05:28:36.087Z,0.20
2023-04-10T05:31:36.360Z,0.10
2023-04-10T05:34:23.652Z,0.08
2023-04-10T05:37:13.797Z,0.10
2023-04-10T05:39:56.785Z,0.10
2023-04-10T05:42:26.564Z,0.10
2023-04-10T05:45:18.817Z,0.10
2023-04-10T05:48:01.098Z,0.10
2023-04-10T05:50:38.393Z,0.20
2023-04-10T05:53:15.552Z,0.03
2023-04-10T05:56:02.933Z,0.10
2023-04-10T05:58:53.591Z,0.10
2023-04-10T06:04:40.603Z,0.10
2023-04-10T06:07:07.833Z,0.00
2023-04-10T06:09:35.108Z,0.10
2023-04-10T06:12:05.919Z,0.10
2023-04-10T06:14:32.991Z,0.10
2023-04-10T06:16:59.927Z,0.10
2023-04-10T06:19:26.891Z,0.10
2023-04-10T06:21:54.636Z,0.10
2023-04-10T06:24:21.858Z,0.10
2023-04-10T06:26:50.209Z,0.10
2023-04-10T06:29:17.204Z,0.10
2023-04-10T06:31:44.678Z,0.10
2023-04-10T06:34:12.390Z,0.10
2023-04-10T06:36:48.385Z,0.10
2023-04-10T06:39:16.389Z,0.10
2023-04-10T06:41:43.604Z,0.20
2023-04-10T06:44:24.647Z,0.10
2023-04-10T06:46:51.716Z,0.10
2023-04-10T06:49:18.692Z,0.10
2023-04-10T06:51:46.255Z,0.10
2023-04-10T06:54:17.506Z,0.10
2023-04-10T06:56:47.920Z,0.10
2023-04-10T06:59:15.047Z,0.15
2023-04-10T07:01:42.698Z,0.10
2023-04-10T07:04:12.921Z,0.10
2023-04-10T07:06:40.483Z,0.10
2023-04-10T07:09:08.134Z,0.10
2023-04-10T07:11:35.355Z,0.10
2023-04-10T07:14:02.326Z,0.95
2023-04-10T07:16:29.479Z,0.00
2023-04-10T07:18:56.946Z,0.10
2023-04-10T07:21:24.242Z,0.00
2023-04-10T07:23:51.570Z,0.00
2023-04-10T07:26:18.642Z,0.00
2023-04-10T07:28:45.562Z,0.10
2023-04-10T07:31:13.831Z,0.10
2023-04-10T07:33:40.915Z,0.10
2023-04-10T07:36:08.771Z,0.10
2023-04-10T07:38:36.532Z,0.10
2023-04-10T07:41:03.756Z,0.10
2023-04-10T07:43:31.738Z,0.10
2023-04-10T07:45:59.152Z,0.10
2023-04-10T07:48:26.713Z,0.10
2023-04-10T07:50:54.035Z,0.10
2023-04-10T07:53:21.284Z,0.10
2023-04-10T07:55:49.765Z,0.10
2023-04-10T07:58:19.503Z,0.03
2023-04-10T08:00:46.861Z,0.13
2023-04-10T08:03:15.964Z,0.17
2023-04-10T08:05:43.385Z,0.00
2023-04-10T08:08:10.894Z,0.03
2023-04-10T08:10:38.654Z,0.15
2023-04-10T08:13:06.146Z,0.20
2023-04-10T08:15:33.437Z,0.08
2023-04-10T08:18:00.914Z,0.10
2023-04-10T08:20:28.381Z,0.10
2023-04-10T08:22:56.251Z,0.63
2023-04-10T08:25:26.119Z,0.00
2023-04-10T08:27:53.172Z,0.00
2023-04-10T08:30:21.726Z,0.03
2023-04-10T08:32:48.794Z,0.55
2023-04-10T08:35:15.741Z,0.00
2023-04-10T08:37:46.180Z,0.00
2023-04-10T08:40:13.489Z,0.00
2023-04-10T08:42:40.480Z,0.10
2023-04-10T08:45:08.173Z,0.00
2023-04-10T08:47:37.022Z,0.00
2023-04-10T08:50:08.415Z,0.00
2023-04-10T08:52:36.286Z,0.00
2023-04-10T08:55:06.030Z,0.00
2023-04-10T08:57:33.147Z,0.00
2023-04-10T09:00:09.654Z,0.17
2023-04-10T09:02:47.388Z,0.00
2023-04-10T09:05:14.547Z,0.00
2023-04-10T09:07:41.539Z,0.00
2023-04-10T09:10:09.346Z,0.00
2023-04-10T09:12:46.656Z,0.00
2023-04-10T09:15:14.137Z,0.00
2023-04-10T09:18:01.398Z,0.00
2023-04-10T09:20:32.129Z,0.00
2023-04-10T09:22:59.320Z,0.00
2023-04-10T09:25:37.025Z,0.00
2023-04-10T09:28:06.187Z,0.00
2023-04-10T09:30:40.853Z,0.00
2023-04-10T09:33:24.577Z,0.00
2023-04-10T09:35:51.646Z,0.00
2023-04-10T09:38:20.576Z,0.00
2023-04-10T09:40:48.197Z,0.00
2023-04-10T09:43:25.730Z,0.00
2023-04-10T09:45:57.104Z,0.00
2023-04-10T09:48:24.948Z,0.00
2023-04-10T09:50:52.126Z,0.00
2023-04-10T09:53:20.950Z,0.00
2023-04-10T09:55:48.645Z,0.00
2023-04-10T09:58:16.189Z,0.00
2023-04-10T10:00:45.510Z,0.00
2023-04-10T10:03:16.671Z,0.00
2023-04-10T10:05:45.911Z,0.00
2023-04-10T10:08:14.433Z,0.00
2023-04-10T10:10:48.549Z,0.00
2023-04-10T10:13:19.870Z,0.00
2023-04-10T10:15:52.290Z,0.00
2023-04-10T10:18:40.664Z,0.00
2023-04-10T10:21:09.093Z,0.00
2023-04-10T10:23:37.481Z,0.00
2023-04-10T10:26:06.780Z,0.00
2023-04-10T10:28:37.492Z,0.00
2023-04-10T10:31:05.164Z,0.00
2023-04-10T10:33:32.528Z,0.00
2023-04-10T10:36:03.500Z,0.00
2023-04-10T10:38:31.280Z,0.00
2023-04-10T10:41:37.156Z,0.00
2023-04-10T10:44:23.769Z,0.00
2023-04-10T10:49:18.455Z,0.00
2023-04-10T10:51:50.093Z,0.00
2023-04-10T10:54:36.611Z,0.00
2023-04-10T10:57:09.513Z,0.00
2023-04-10T10:59:48.628Z,0.00
2023-04-10T11:02:19.426Z,0.00
2023-04-10T11:04:47.476Z,0.00
2023-04-10T11:07:14.990Z,0.00
2023-04-10T11:09:54.779Z,0.00
2023-04-10T11:12:23.515Z,0.00
2023-04-10T11:14:58.735Z,0.00
2023-04-10T11:17:51.228Z,0.05
2023-04-10T11:20:20.895Z,0.00
2023-04-10T11:23:08.215Z,0.32
2023-04-10T11:25:51.978Z,0.28
2023-04-10T11:28:38.517Z,0.10
2023-04-10T11:31:22.096Z,0.13
2023-04-10T11:33:59.388Z,0.13
2023-04-10T11:36:26.960Z,0.10
2023-04-10T11:38:57.737Z,0.10
2023-04-10T11:41:31.983Z,0.03
2023-04-10T11:43:59.962Z,0.10
2023-04-10T11:46:27.225Z,0.00
2023-04-10T11:49:01.674Z,0.05
2023-04-10T11:51:28.887Z,0.20
2023-04-10T11:54:08.207Z,0.10
2023-04-10T11:56:35.532Z,0.10
2023-04-10T11:59:07.937Z,0.17
2023-04-10T12:01:35.405Z,0.10
2023-04-10T12:04:02.615Z,0.10
2023-04-10T12:06:29.809Z,0.17
2023-04-10T12:08:57.173Z,0.50
2023-04-10T12:11:25.233Z,0.22
2023-04-10T12:13:56.140Z,0.22
2023-04-10T12:16:23.237Z,0.10
2023-04-10T12:18:50.547Z,0.20
2023-04-10T12:21:17.579Z,0.10
2023-04-10T12:23:44.607Z,0.30
2023-04-10T12:26:12.491Z,0.10
2023-04-10T12:28:40.564Z,0.10
2023-04-10T12:31:08.098Z,0.28
2023-04-10T12:33:35.508Z,0.35
2023-04-10T12:36:02.668Z,0.10
2023-04-10T12:38:42.873Z,0.10
2023-04-10T12:41:11.296Z,0.10
2023-04-10T12:43:42.165Z,0.20
2023-04-10T12:46:10.292Z,0.57
2023-04-10T12:48:37.351Z,1.00
2023-04-10T12:51:04.751Z,0.22
2023-04-10T12:53:31.896Z,0.30
2023-04-10T12:56:06.598Z,0.68
2023-04-10T12:58:34.091Z,0.43
2023-04-10T13:01:09.164Z,0.25
2023-04-10T13:03:39.512Z,0.30
2023-04-10T13:06:07.533Z,0.40
2023-04-10T13:08:37.699Z,0.28
2023-04-10T13:11:05.152Z,0.30
2023-04-10T13:13:35.530Z,0.55
2023-04-10T13:16:02.607Z,0.45
2023-04-10T13:18:29.880Z,0.20
2023-04-10T13:20:56.882Z,0.28
2023-04-10T13:23:23.814Z,0.40
2023-04-10T13:25:51.082Z,0.30
2023-04-10T13:28:18.979Z,0.77
2023-04-10T13:30:46.118Z,0.10
2023-04-10T13:33:13.123Z,0.30
2023-04-10T13:35:40.529Z,0.17
2023-04-10T13:38:09.712Z,0.30
2023-04-10T13:40:36.745Z,0.20
2023-04-10T13:43:03.896Z,0.10
2023-04-10T13:45:30.949Z,0.00
2023-04-10T13:47:58.110Z,0.00
2023-04-10T13:50:25.374Z,0.00
2023-04-10T13:52:53.601Z,0.00
2023-04-10T13:55:20.889Z,0.00
2023-04-10T13:57:47.920Z,0.00
2023-04-10T14:00:15.273Z,0.00
2023-04-10T14:02:42.663Z,0.00
2023-04-10T14:05:10.181Z,0.00
2023-04-10T14:07:37.136Z,0.00
2023-04-10T14:10:04.439Z,0.00
2023-04-10T14:12:31.768Z,0.38
2023-04-10T14:14:59.413Z,0.00
2023-04-10T14:17:26.808Z,0.10
2023-04-10T14:19:54.287Z,0.10
2023-04-10T14:22:21.340Z,0.03
2023-04-10T14:24:48.951Z,0.38
2023-04-10T14:27:17.268Z,0.20
2023-04-10T14:29:53.923Z,0.10
2023-04-10T14:32:22.019Z,0.10
2023-04-10T14:34:50.336Z,0.03
2023-04-10T14:37:19.087Z,0.10
2023-04-10T14:39:46.112Z,0.00
2023-04-10T14:42:13.079Z,0.00
2023-04-10T14:44:40.071Z,0.20
2023-04-10T14:47:08.001Z,0.10
2023-04-10T14:49:35.295Z,0.32
2023-04-10T14:52:02.352Z,0.10
2023-04-10T14:54:29.355Z,0.00
2023-04-10T14:56:58.231Z,0.17
2023-04-10T14:59:25.185Z,0.10
2023-04-10T15:01:53.939Z,0.25
2023-04-10T15:04:21.216Z,0.10
2023-04-10T15:06:48.418Z,0.50
2023-04-10T15:09:15.327Z,0.22
2023-04-10T15:11:42.380Z,0.10
2023-04-10T15:14:09.364Z,0.20
2023-04-10T15:16:36.511Z,0.10
2023-04-10T15:19:03.485Z,0.05
2023-04-10T15:21:31.707Z,0.20
2023-04-10T15:23:58.682Z,0.30
2023-04-10T15:26:26.226Z,0.25
2023-04-10T15:28:53.196Z,0.00
2023-04-10T15:31:24.053Z,0.10
2023-04-10T15:33:51.966Z,0.20
2023-04-10T15:36:19.418Z,0.10
2023-04-10T15:38:48.139Z,0.20
2023-04-10T15:41:16.768Z,0.00
2023-04-10T15:43:43.876Z,0.03
2023-04-10T15:46:11.139Z,0.00
2023-04-10T15:48:38.217Z,0.10
2023-04-10T15:51:06.048Z,0.10
2023-04-10T15:53:34.036Z,0.00
2023-04-10T15:56:01.138Z,0.28
2023-04-10T15:58:28.088Z,0.00
2023-04-10T16:00:56.152Z,0.00
2023-04-10T16:03:23.346Z,0.35
2023-04-10T16:05:50.760Z,0.10
2023-04-10T16:08:17.794Z,0.00
2023-04-10T16:10:44.803Z,0.00
2023-04-10T16:13:11.813Z,0.00
2023-04-10T16:15:38.974Z,0.00
2023-04-10T16:18:07.628Z,0.47
2023-04-10T16:20:34.669Z,0.00
2023-04-10T16:23:01.859Z,0.30
2023-04-10T16:25:28.831Z,0.00
2023-04-10T16:27:56.058Z,0.32
2023-04-10T16:30:23.550Z,0.00
2023-04-10T16:32:51.268Z,0.00
2023-04-10T16:35:19.131Z,0.00
2023-04-10T16:37:46.589Z,5.15
2023-04-10T16:40:13.746Z,0.45
2023-04-10T16:42:40.853Z,0.00
2023-04-10T16:45:08.770Z,0.00
2023-04-10T16:47:35.941Z,0.00
2023-04-10T16:50:03.054Z,0.00
2023-04-10T16:52:32.298Z,0.00
2023-04-10T16:55:00.033Z,0.00
2023-04-10T16:57:29.549Z,0.00
2023-04-10T16:59:59.550Z,0.20
2023-04-10T17:02:27.008Z,0.03
2023-04-10T17:04:55.366Z,0.38
2023-04-10T17:07:23.955Z,0.10
2023-04-10T17:09:52.677Z,0.00
2023-04-10T17:12:19.748Z,0.20
2023-04-10T17:14:46.743Z,0.00
2023-04-10T17:17:13.755Z,0.15
2023-04-10T17:19:40.828Z,0.00
2023-04-10T17:22:16.017Z,0.10
2023-04-10T17:24:43.858Z,0.10
2023-04-10T17:27:10.932Z,0.05
2023-04-10T17:29:41.020Z,1.00
2023-04-10T17:32:08.256Z,0.20
2023-04-10T17:34:38.260Z,0.80
2023-04-10T17:37:05.192Z,0.00
2023-04-10T17:39:32.093Z,0.10
2023-04-10T17:41:59.034Z,0.20
2023-04-10T17:44:25.988Z,0.00
2023-04-10T17:46:54.116Z,0.40
2023-04-10T17:49:21.888Z,0.20
2023-04-10T17:51:49.412Z,0.45
2023-04-10T17:54:16.427Z,0.00
2023-04-10T17:56:43.529Z,0.10
2023-04-10T17:59:10.736Z,0.10
2023-04-10T18:01:39.925Z,0.00
2023-04-10T18:04:07.311Z,0.05
2023-04-10T18:06:34.542Z,0.10
2023-04-10T18:09:01.603Z,0.00
2023-04-10T18:11:28.655Z,0.20
2023-04-10T18:13:55.791Z,0.10
2023-04-10T18:16:22.832Z,0.22
2023-04-10T18:18:49.867Z,0.43
2023-04-10T18:21:17.240Z,0.00
2023-04-10T18:23:44.654Z,0.00
2023-04-10T18:26:11.771Z,0.10
2023-04-10T18:28:38.855Z,0.05
2023-04-10T18:31:06.411Z,0.00
2023-04-10T18:33:33.591Z,0.00
2023-04-10T18:36:00.667Z,0.00
2023-04-10T18:38:29.556Z,0.10
2023-04-10T18:40:57.214Z,0.00
2023-04-10T18:43:27.647Z,0.05
2023-04-10T18:45:55.151Z,0.00
2023-04-10T18:48:25.066Z,0.00
2023-04-10T18:50:54.904Z,0.00
2023-04-10T18:53:25.800Z,0.20
2023-04-10T18:55:53.210Z,0.10
2023-04-10T18:58:20.820Z,0.13
2023-04-10T19:00:48.138Z,0.00
2023-04-10T19:03:15.554Z,0.00
2023-04-10T19:08:24.772Z,0.40
2023-04-10T19:10:51.841Z,0.10
2023-04-10T19:13:19.167Z,0.20
2023-04-10T19:15:46.979Z,0.10
2023-04-10T19:18:15.852Z,0.00
2023-04-10T19:20:50.587Z,0.10
2023-04-10T19:23:19.635Z,0.20
2023-04-10T19:25:46.759Z,0.00
2023-04-10T19:28:13.828Z,0.00
2023-04-10T19:30:40.933Z,0.10
2023-04-10T19:33:08.043Z,0.45
2023-04-10T19:35:35.364Z,0.22
2023-04-10T19:38:07.743Z,0.32
2023-04-10T19:40:35.884Z,0.00
2023-04-10T19:43:03.194Z,0.10
2023-04-10T19:45:32.341Z,0.10
2023-04-10T19:48:00.230Z,0.20
2023-04-10T19:50:30.022Z,0.10
2023-04-10T19:52:57.652Z,0.10
2023-04-10T19:55:24.837Z,0.10
2023-04-10T19:57:51.950Z,0.00
2023-04-10T20:00:20.042Z,0.00
2023-04-10T20:02:47.374Z,0.00
2023-04-10T20:05:14.810Z,0.00
2023-04-10T20:07:41.971Z,0.00
2023-04-10T20:10:09.877Z,0.00
2023-04-10T20:12:37.132Z,0.00
2023-04-10T20:15:06.259Z,0.00
2023-04-10T20:17:33.305Z,0.20
2023-04-10T20:20:00.327Z,0.40
2023-04-10T20:22:27.638Z,0.08
2023-04-10T20:24:54.762Z,0.15
2023-04-10T20:27:21.727Z,0.00
2023-04-10T20:29:48.954Z,0.10
2023-04-10T20:32:16.139Z,0.00
2023-04-10T20:34:43.275Z,0.10
2023-04-10T20:37:10.580Z,0.00
2023-04-10T20:39:38.335Z,0.08
2023-04-10T20:42:07.120Z,0.00
2023-04-10T20:44:40.321Z,0.00
2023-04-10T20:47:07.493Z,0.00
2023-04-10T20:49:38.863Z,0.00
2023-04-10T20:52:06.955Z,0.08
2023-04-10T20:54:34.182Z,0.00
2023-04-10T20:57:01.944Z,0.00
2023-04-10T20:59:38.325Z,0.03
2023-04-10T21:04:34.738Z,0.22
2023-04-10T21:07:02.077Z,0.00
2023-04-10T21:09:29.631Z,0.03
2023-04-10T21:11:57.728Z,0.00
2023-04-10T21:14:24.789Z,0.00
2023-04-10T21:16:51.930Z,0.00
2023-04-10T21:19:18.861Z,0.00
2023-04-10T21:21:50.972Z,0.00
2023-04-10T21:24:17.941Z,0.00
2023-04-10T21:26:45.092Z,0.08
2023-04-10T21:29:15.700Z,0.00
2023-04-10T21:31:47.020Z,0.00
2023-04-10T21:34:15.569Z,0.13
2023-04-10T21:36:44.364Z,0.00
2023-04-10T21:39:11.617Z,0.00
2023-04-10T21:41:39.304Z,0.00
2023-04-10T21:44:14.802Z,0.08
2023-04-10T21:46:41.723Z,0.00
2023-04-10T21:49:09.006Z,0.00
2023-04-10T21:51:36.525Z,0.10
2023-04-10T21:54:03.542Z,0.00
2023-04-10T21:56:30.597Z,0.03
2023-04-10T21:58:57.544Z,0.32
2023-04-10T22:01:24.550Z,0.00
2023-04-10T22:03:52.154Z,0.25
2023-04-10T22:06:19.262Z,0.10
2023-04-10T22:08:46.692Z,0.00
2023-04-10T22:11:13.645Z,0.00
2023-04-10T22:13:40.620Z,0.17
2023-04-10T22:16:07.761Z,0.28
2023-04-10T22:18:34.726Z,0.10
2023-04-10T22:21:04.219Z,0.38
2023-04-10T22:23:31.612Z,0.10
2023-04-10T22:26:00.763Z,0.15
2023-04-10T22:28:28.794Z,0.00
2023-04-10T22:30:55.826Z,0.17
2023-04-10T22:33:22.909Z,0.20
2023-04-10T22:35:49.980Z,0.10
2023-04-10T22:38:17.264Z,0.43
2023-04-10T22:40:44.181Z,0.00
2023-04-10T22:43:11.383Z,0.10
2023-04-10T22:45:40.401Z,0.20
2023-04-10T22:48:07.407Z,0.10
2023-04-10T22:50:34.410Z,0.47
2023-04-10T22:53:01.404Z,0.10
2023-04-10T22:55:28.449Z,0.10
2023-04-10T22:57:55.454Z,0.05
2023-04-10T23:00:22.454Z,0.63
2023-04-10T23:02:49.595Z,0.10
2023-04-10T23:05:16.828Z,0.10
2023-04-10T23:07:44.199Z,0.10
2023-04-10T23:10:11.296Z,0.00
2023-04-10T23:12:38.168Z,0.00
2023-04-10T23:15:07.280Z,0.13
2023-04-10T23:17:34.320Z,0.10
2023-04-10T23:20:01.365Z,0.10
2023-04-10T23:22:29.154Z,0.20
2023-04-10T23:24:56.475Z,0.32
2023-04-10T23:27:23.716Z,0.05
2023-04-10T23:29:50.834Z,0.30
2023-04-10T23:32:18.000Z,0.20
2023-04-10T23:34:45.534Z,0.10
2023-04-10T23:37:13.122Z,0.10
2023-04-10T23:39:40.182Z,0.20
2023-04-10T23:42:08.467Z,0.28
2023-04-10T23:44:35.720Z,0.10
2023-04-10T23:47:02.760Z,0.00
2023-04-10T23:49:31.587Z,0.05
2023-04-10T23:51:58.687Z,0.10
2023-04-10T23:54:25.687Z,0.45
2023-04-10T23:56:52.618Z,0.15
2023-04-10T23:59:19.986Z,0.10
